Time;durP1;ratioP1;P1;durP2;ratioP2;P2;SDS_P1;SDS_P2;PMS_P1;PMS_P2;Temp;Humidity;BMP_temperature;BMP_pressure;BME280_temperature;BME280_humidity;BME280_pressure;Samples;Min_cycle;Max_cycle;Signal;HPM_P1;HPM_P2
2021/12/06 00:01:45;;;;;;;6.38;5.20;;;14.60;62.90;;;;;;5032082;28;20167;-73
2021/12/06 00:04:14;;;;;;;6.45;4.93;;;14.50;63.00;;;;;;5032636;28;20490;-72
2021/12/06 00:06:43;;;;;;;6.60;5.13;;;14.50;63.10;;;;;;5031794;28;20143;-72
2021/12/06 00:09:11;;;;;;;6.32;5.05;;;14.50;63.10;;;;;;5032163;28;20143;-71
2021/12/06 00:11:37;;;;;;;6.93;5.35;;;14.40;62.90;;;;;;5032273;28;20221;-72
2021/12/06 00:14:05;;;;;;;6.93;4.68;;;14.40;63.10;;;;;;5031740;28;20474;-71
2021/12/06 00:16:31;;;;;;;7.15;5.45;;;14.50;63.10;;;;;;5031777;28;20157;-72
2021/12/06 00:18:58;;;;;;;7.68;4.82;;;14.40;63.10;;;;;;5031985;28;20113;-72
2021/12/06 00:21:25;;;;;;;6.75;5.45;;;14.40;63.10;;;;;;5032038;28;20089;-73
2021/12/06 00:23:53;;;;;;;6.75;5.03;;;14.30;63.00;;;;;;5031754;28;20056;-72
2021/12/06 00:26:20;;;;;;;6.95;5.13;;;14.70;63.40;;;;;;5031393;28;20049;-71
2021/12/06 00:28:49;;;;;;;7.05;5.43;;;14.40;63.40;;;;;;5032011;28;20041;-72
2021/12/06 00:31:16;;;;;;;6.88;5.15;;;14.30;63.00;;;;;;5031657;28;20092;-71
2021/12/06 00:33:43;;;;;;;6.63;5.25;;;14.30;63.30;;;;;;5048096;28;20537;-71
2021/12/06 00:36:16;;;;;;;6.80;5.55;;;14.00;63.00;;;;;;5031186;28;20084;-73
2021/12/06 00:38:43;;;;;;;6.63;5.32;;;14.40;63.50;;;;;;5031354;28;20068;-71
2021/12/06 00:41:11;;;;;;;7.45;5.60;;;14.30;63.50;;;;;;5031320;28;20136;-72
2021/12/06 00:43:38;;;;;;;6.75;5.40;;;13.60;63.00;;;;;;5031284;28;20132;-72
2021/12/06 00:46:04;;;;;;;7.50;5.72;;;14.40;63.40;;;;;;5030581;28;20132;-71
2021/12/06 00:48:31;;;;;;;8.13;5.90;;;14.20;63.50;;;;;;5031470;28;20136;-72
2021/12/06 00:50:58;;;;;;;7.63;6.07;;;14.00;63.40;;;;;;5031474;28;20155;-72
2021/12/06 00:53:24;;;;;;;7.88;5.70;;;14.30;63.20;;;;;;5030868;28;20061;-72
2021/12/06 00:55:51;;;;;;;7.80;5.70;;;14.20;63.60;;;;;;5031065;28;20128;-71
2021/12/06 00:58:19;;;;;;;7.88;5.85;;;14.20;63.60;;;;;;5030921;28;20128;-72
2021/12/06 01:00:47;;;;;;;7.78;5.75;;;14.20;63.60;;;;;;5030876;28;20128;-72
2021/12/06 01:03:15;;;;;;;7.43;5.90;;;14.10;57.10;;;;;;5031057;28;20156;-74
2021/12/06 01:05:43;;;;;;;7.78;5.45;;;14.10;63.50;;;;;;5030717;28;20053;-73
2021/12/06 01:08:09;;;;;;;8.10;6.43;;;14.20;63.40;;;;;;5030579;28;20136;-72
2021/12/06 01:10:36;;;;;;;7.55;5.82;;;14.20;63.60;;;;;;5047286;28;20173;-73
2021/12/06 01:13:03;;;;;;;7.47;5.82;;;14.00;62.30;;;;;;5030901;28;20140;-72
2021/12/06 01:15:31;;;;;;;9.23;6.05;;;14.00;63.60;;;;;;5030794;28;20136;-72
2021/12/06 01:17:59;;;;;;;7.75;6.20;;;13.80;63.40;;;;;;5030837;28;20735;-72
2021/12/06 01:20:29;;;;;;;8.15;6.25;;;14.10;63.50;;;;;;5031043;28;20504;-73
2021/12/06 01:23:01;;;;;;;8.35;5.97;;;13.80;63.50;;;;;;5012343;28;20046;-72
2021/12/06 01:25:33;;;;;;;7.97;6.20;;;13.90;59.30;;;;;;5019405;28;20063;-71
2021/12/06 01:28:31;;;;;;;7.40;5.65;;;;;;;;;;5031902;28;20096;-71
2021/12/06 01:31:05;;;;;;;8.07;6.22;;;14.00;63.50;;;;;;5044078;28;20129;-72
2021/12/06 01:39:17;;;;;;;7.75;5.95;;;13.90;63.70;;;;;;5031672;28;20045;-72
2021/12/06 01:41:46;;;;;;;8.75;6.38;;;13.90;63.50;;;;;;5030506;28;20549;-72
2021/12/06 01:44:14;;;;;;;8.63;6.15;;;13.90;63.60;;;;;;5030469;28;20081;-72
2021/12/06 01:46:44;;;;;;;8.45;6.13;;;13.90;57.10;;;;;;5031133;28;20517;-73
2021/12/06 01:49:11;;;;;;;7.55;5.80;;;13.90;63.60;;;;;;5030325;28;20144;-72
2021/12/06 01:51:38;;;;;;;7.95;6.22;;;14.10;63.90;;;;;;5030602;28;20084;-72
2021/12/06 01:54:05;;;;;;;7.43;5.80;;;13.80;63.70;;;;;;5030221;28;20164;-72
2021/12/06 01:56:32;;;;;;;8.50;6.47;;;13.90;63.60;;;;;;5029985;28;20136;-72
2021/12/06 01:58:58;;;;;;;8.15;6.03;;;14.10;63.90;;;;;;5035529;28;20557;-72
2021/12/06 02:01:25;;;;;;;8.45;6.32;;;13.70;63.50;;;;;;5035664;28;20129;-72
2021/12/06 02:03:53;;;;;;;7.85;6.00;;;13.90;59.00;;;;;;5035348;28;20128;-72
2021/12/06 02:06:20;;;;;;;8.13;6.55;;;13.70;63.60;;;;;;5033938;28;20136;-72
2021/12/06 02:08:47;;;;;;;9.02;6.80;;;13.60;63.60;;;;;;5034063;28;20378;-72
2021/12/06 02:11:13;;;;;;;8.35;6.30;;;13.90;63.90;;;;;;5034498;28;20084;-72
2021/12/06 02:13:47;;;;;;;9.50;6.45;;;13.70;63.80;;;;;;5034225;28;20054;-72
2021/12/06 02:16:16;;;;;;;8.55;6.20;;;;;;;;;;5033960;28;20057;-73
2021/12/06 02:18:48;;;;;;;6.70;5.60;;;;;;;;;;5035289;28;20038;-72
2021/12/06 02:21:19;;;;;;;8.43;6.38;;;13.70;63.80;;;;;;5033879;28;20053;-72
2021/12/06 02:23:46;;;;;;;9.68;6.47;;;13.60;63.60;;;;;;5035166;28;20042;-72
2021/12/06 02:26:13;;;;;;;8.95;6.57;;;13.80;63.90;;;;;;5034779;28;20092;-72
2021/12/06 02:28:40;;;;;;;8.30;6.15;;;13.80;63.70;;;;;;5033853;28;20490;-72
2021/12/06 02:31:07;;;;;;;8.82;6.45;;;;;;;;;;5033986;28;20128;-72
2021/12/06 02:33:34;;;;;;;9.10;6.13;;;13.60;63.80;;;;;;5050230;28;20398;-72
2021/12/06 02:36:00;;;;;;;8.02;6.05;;;13.80;64.00;;;;;;5034615;28;20103;-73
2021/12/06 02:38:29;;;;;;;8.20;6.20;;;13.70;63.90;;;;;;5033881;28;20128;-72
2021/12/06 02:40:55;;;;;;;9.10;6.60;;;14.10;64.10;;;;;;5033341;28;20136;-72
2021/12/06 02:43:22;;;;;;;8.82;6.80;;;13.00;63.60;;;;;;5033694;28;20596;-72
2021/12/06 02:45:49;;;;;;;9.13;6.88;;;13.60;59.30;;;;;;5033261;28;20145;-72
2021/12/06 02:48:16;;;;;;;8.30;6.60;;;;;;;;;;5034429;28;20120;-72
2021/12/06 02:50:46;;;;;;;8.93;6.38;;;13.50;63.70;;;;;;5033751;28;20132;-73
2021/12/06 02:53:12;;;;;;;9.23;6.15;;;13.40;63.70;;;;;;5033588;28;20140;-72
2021/12/06 02:55:43;;;;;;;8.05;6.45;;;13.60;64.00;;;;;;5031542;28;20135;-72
2021/12/06 02:58:17;;;;;;;9.77;6.32;;;13.60;57.20;;;;;;5034699;28;20041;-72
2021/12/06 03:00:46;;;;;;;9.13;6.37;;;13.60;64.50;;;;;;5033294;28;20057;-72
2021/12/06 03:03:13;;;;;;;8.85;6.15;;;;;;;;;;5033016;28;20498;-72
2021/12/06 03:05:40;;;;;;;8.40;6.15;;;13.60;63.40;;;;;;5049197;28;20132;-72
2021/12/06 03:08:07;;;;;;;9.50;6.90;;;13.60;64.10;;;;;;5032824;28;20466;-72
2021/12/06 03:10:34;;;;;;;8.40;6.30;;;;;;;;;;5032608;28;20141;-72
2021/12/06 03:13:02;;;;;;;8.02;6.20;;;13.60;61.70;;;;;;5049790;28;20232;-72
2021/12/06 03:15:29;;;;;;;8.48;6.32;;;13.70;63.90;;;;;;5032806;28;20057;-72
2021/12/06 03:17:56;;;;;;;8.45;6.10;;;;;;;;;;5033147;28;20124;-71
2021/12/06 03:20:22;;;;;;;8.93;6.35;;;14.10;64.10;;;;;;5049315;28;20133;-72
2021/12/06 03:22:49;;;;;;;10.00;6.38;;;;;;;;;;5032615;28;20535;-72
2021/12/06 03:25:17;;;;;;;7.40;5.95;;;13.90;64.00;;;;;;5034024;28;20129;-72
2021/12/06 03:27:44;;;;;;;8.63;6.50;;;13.80;63.90;;;;;;5033817;28;20056;-72
2021/12/06 03:30:13;;;;;;;9.60;6.43;;;13.80;63.90;;;;;;5032801;28;20437;-72
2021/12/06 03:32:40;;;;;;;9.32;6.43;;;13.80;63.90;;;;;;5032974;28;20060;-72
2021/12/06 03:35:08;;;;;;;8.63;6.22;;;13.70;63.60;;;;;;5031869;28;20152;-72
2021/12/06 03:37:35;;;;;;;10.52;6.65;;;13.80;63.60;;;;;;5032259;28;20156;-72
2021/12/06 03:40:01;;;;;;;8.75;6.40;;;13.80;63.90;;;;;;5032127;28;20132;-72
2021/12/06 03:42:28;;;;;;;8.60;6.68;;;;;;;;;;5033873;28;20080;-73
2021/12/06 03:44:55;;;;;;;9.52;6.90;;;14.10;63.80;;;;;;5049020;28;20561;-72
2021/12/06 03:47:25;;;;;;;9.27;6.53;;;13.90;57.00;;;;;;5048599;28;20049;-72
2021/12/06 03:49:52;;;;;;;10.30;6.72;;;13.90;63.50;;;;;;5032396;28;20140;-72
2021/12/06 03:52:19;;;;;;;8.65;6.32;;;14.00;63.80;;;;;;5032379;28;20132;-72
2021/12/06 03:54:46;;;;;;;9.30;6.50;;;13.90;63.70;;;;;;5033548;28;20132;-71
2021/12/06 03:57:13;;;;;;;10.35;6.57;;;14.00;63.60;;;;;;5032266;28;20554;-73
2021/12/06 03:59:40;;;;;;;7.97;6.07;;;13.90;63.40;;;;;;5032098;28;20141;-71
2021/12/06 04:02:07;;;;;;;9.20;6.22;;;13.90;63.30;;;;;;5032205;28;20128;-71
2021/12/06 04:04:35;;;;;;;9.25;6.35;;;14.00;63.60;;;;;;5031549;28;20064;-72
2021/12/06 04:07:03;;;;;;;9.25;6.47;;;14.00;63.30;;;;;;5031952;28;20096;-72
2021/12/06 04:09:30;;;;;;;9.75;6.60;;;14.00;63.30;;;;;;5032196;28;20079;-72
2021/12/06 04:11:57;;;;;;;8.88;6.18;;;14.10;63.50;;;;;;5032026;28;20136;-73
2021/12/06 04:14:24;;;;;;;10.15;6.55;;;;;;;;;;5031690;28;20477;-71
2021/12/06 04:16:51;;;;;;;9.35;6.45;;;;;;;;;;5048338;28;20087;-71
2021/12/06 04:19:18;;;;;;;9.02;6.38;;;;;;;;;;5048172;28;20136;-72
2021/12/06 04:21:47;;;;;;;9.30;6.53;;;14.90;63.80;;;;;;5047320;28;20140;-71
2021/12/06 04:24:14;;;;;;;7.93;6.15;;;14.20;63.30;;;;;;5031623;28;20057;-72
2021/12/06 04:26:40;;;;;;;8.02;6.25;;;14.10;63.10;;;;;;5031717;28;20480;-72
2021/12/06 04:29:07;;;;;;;10.30;6.90;;;14.00;63.00;;;;;;5031696;28;20060;-74
2021/12/06 04:31:35;;;;;;;9.73;6.13;;;14.20;63.00;;;;;;5032522;28;20056;-71
2021/12/06 04:34:02;;;;;;;8.25;6.18;;;14.20;63.20;;;;;;5031450;28;20136;-71
2021/12/06 04:36:29;;;;;;;10.20;6.57;;;13.80;63.00;;;;;;5048142;28;20137;-71
2021/12/06 04:38:57;;;;;;;8.13;5.97;;;14.20;63.20;;;;;;5031309;28;20136;-71
2021/12/06 04:41:23;;;;;;;8.77;6.18;;;14.10;62.90;;;;;;5031361;28;20147;-71
2021/12/06 04:43:50;;;;;;;8.45;6.00;;;14.30;63.00;;;;;;5031165;28;20141;-72
2021/12/06 04:46:17;;;;;;;8.75;6.57;;;14.40;62.00;;;;;;5031296;28;20553;-71
2021/12/06 04:48:44;;;;;;;8.43;6.35;;;;;;;;;;5030512;28;20120;-71
2021/12/06 04:51:11;;;;;;;8.35;6.07;;;14.20;59.00;;;;;;5031532;28;20136;-72
2021/12/06 04:53:38;;;;;;;8.50;5.93;;;14.20;63.00;;;;;;5031158;28;20553;-71
2021/12/06 04:56:11;;;;;;;7.53;5.65;;;14.20;62.90;;;;;;5031120;28;20525;-72
2021/12/06 04:58:40;;;;;;;9.13;5.68;;;14.20;56.40;;;;;;5030999;28;20136;-72
2021/12/06 05:01:10;;;;;;;8.88;6.35;;;14.30;62.70;;;;;;5031051;28;20533;-72
2021/12/06 05:03:37;;;;;;;10.20;6.65;;;14.30;63.00;;;;;;5030999;28;20128;-72
2021/12/06 05:06:06;;;;;;;8.25;6.03;;;14.20;62.90;;;;;;5031600;28;20421;-71
2021/12/06 05:08:37;;;;;;;7.88;5.95;;;14.20;62.70;;;;;;5030675;28;20450;-73
2021/12/06 05:11:04;;;;;;;8.65;5.97;;;14.30;63.00;;;;;;5031159;28;20137;-71
2021/12/06 05:13:33;;;;;;;8.95;6.43;;;14.30;56.40;;;;;;5047647;28;20053;-71
2021/12/06 05:15:59;;;;;;;7.50;5.72;;;14.40;62.30;;;;;;5030778;28;20140;-71
2021/12/06 05:18:26;;;;;;;8.50;6.07;;;14.30;63.00;;;;;;5030830;28;20486;-71
2021/12/06 05:20:53;;;;;;;8.85;6.20;;;14.20;62.90;;;;;;5030869;28;20081;-72
2021/12/06 05:23:20;;;;;;;8.95;6.07;;;14.30;62.50;;;;;;5030670;28;20060;-71
2021/12/06 05:25:47;;;;;;;8.27;6.15;;;14.20;62.60;;;;;;5031633;28;20095;-73
2021/12/06 05:28:14;;;;;;;8.35;6.07;;;14.30;62.60;;;;;;5030144;28;20144;-72
2021/12/06 05:30:42;;;;;;;8.60;6.07;;;14.10;62.40;;;;;;5030300;28;20500;-71
2021/12/06 05:33:10;;;;;;;8.05;5.95;;;14.10;62.40;;;;;;5029864;28;20064;-73
2021/12/06 05:35:37;;;;;;;8.82;6.05;;;14.30;62.70;;;;;;5030035;28;20061;-71
2021/12/06 05:38:03;;;;;;;9.13;6.35;;;14.40;62.90;;;;;;5030650;28;20132;-72
2021/12/06 05:40:33;;;;;;;9.50;6.32;;;14.30;61.60;;;;;;5030343;28;20134;-71
2021/12/06 05:43:01;;;;;;;8.05;6.03;;;13.70;62.10;;;;;;5030768;28;20136;-71
2021/12/06 05:45:29;;;;;;;9.25;6.63;;;14.30;56.30;;;;;;5030833;28;20077;-71
2021/12/06 05:47:57;;;;;;;8.75;6.07;;;13.90;62.20;;;;;;5029727;28;20553;-72
2021/12/06 05:50:24;;;;;;;8.43;6.30;;;13.80;62.10;;;;;;5030454;28;20085;-71
2021/12/06 05:52:52;;;;;;;9.50;6.65;;;14.30;62.40;;;;;;5030082;28;20053;-72
2021/12/06 05:55:19;;;;;;;8.75;6.20;;;14.30;62.50;;;;;;5030535;28;20513;-72
2021/12/06 05:57:46;;;;;;;7.60;5.72;;;14.40;62.80;;;;;;5029847;28;20136;-72
2021/12/06 06:00:14;;;;;;;9.45;6.32;;;14.40;62.40;;;;;;5030202;28;20080;-72
2021/12/06 06:02:41;;;;;;;9.40;6.72;;;14.40;62.50;;;;;;5030160;28;20084;-71
2021/12/06 06:05:10;;;;;;;8.45;6.53;;;14.40;61.70;;;;;;5020784;28;20099;-71
2021/12/06 06:07:37;;;;;;;8.90;6.47;;;14.20;59.20;;;;;;5030043;28;20057;-72
2021/12/06 06:10:04;;;;;;;9.95;6.90;;;14.00;62.20;;;;;;5031613;28;20135;-73
2021/12/06 06:12:31;;;;;;;10.20;6.40;;;14.30;62.50;;;;;;5031430;28;20054;-72
2021/12/06 06:14:58;;;;;;;9.73;6.55;;;14.30;62.70;;;;;;5030930;28;20103;-73
2021/12/06 06:17:27;;;;;;;8.63;6.10;;;;;;;;;;5029831;28;20129;-72
2021/12/06 06:19:56;;;;;;;9.02;6.47;;;13.80;62.40;;;;;;5046779;28;20058;-71
2021/12/06 06:22:24;;;;;;;9.40;6.72;;;14.40;62.60;;;;;;5030425;28;20053;-72
2021/12/06 06:24:51;;;;;;;10.32;7.03;;;14.40;63.00;;;;;;5030192;28;20149;-71
2021/12/06 06:27:18;;;;;;;9.75;6.70;;;14.10;62.20;;;;;;5029564;28;20133;-72
2021/12/06 06:29:45;;;;;;;9.93;6.65;;;14.40;60.90;;;;;;5029604;28;20132;-71
2021/12/06 06:32:12;;;;;;;9.93;7.10;;;14.40;62.60;;;;;;5030007;28;20077;-71
2021/12/06 06:34:38;;;;;;;9.68;6.80;;;14.40;60.10;;;;;;5029786;28;20585;-72
2021/12/06 06:37:05;;;;;;;9.85;6.90;;;15.10;62.90;;;;;;5029969;28;20141;-72
2021/12/06 06:39:33;;;;;;;10.38;7.13;;;14.10;62.40;;;;;;5029571;28;20137;-71
2021/12/06 06:42:00;;;;;;;8.60;6.47;;;;;;;;;;5029865;28;20484;-72
2021/12/06 06:44:27;;;;;;;10.10;6.95;;;14.40;62.60;;;;;;5047456;28;20140;-72
2021/12/06 06:46:54;;;;;;;7.82;6.03;;;14.40;62.50;;;;;;5034338;28;20463;-71
2021/12/06 06:49:20;;;;;;;10.13;7.05;;;14.30;62.20;;;;;;5066758;28;20128;-72
2021/12/06 06:51:47;;;;;;;10.52;7.20;;;13.90;62.30;;;;;;5033533;28;20089;-72
2021/12/06 06:54:14;;;;;;;9.73;7.30;;;13.90;62.00;;;;;;5033366;28;20471;-71
2021/12/06 06:56:42;;;;;;;9.55;6.95;;;13.90;62.00;;;;;;5033255;28;20148;-71
2021/12/06 06:59:09;;;;;;;8.88;6.57;;;14.40;62.40;;;;;;5033059;28;20128;-72
2021/12/06 07:01:36;;;;;;;10.75;7.63;;;;;;;;;;5033118;28;20450;-71
2021/12/06 07:04:02;;;;;;;9.68;7.30;;;14.40;62.50;;;;;;5032521;28;20057;-73
2021/12/06 07:06:29;;;;;;;11.07;7.38;;;14.50;62.30;;;;;;5032689;28;20489;-73
2021/12/06 07:08:56;;;;;;;9.32;7.18;;;14.40;62.50;;;;;;5033068;28;20137;-73
2021/12/06 07:11:23;;;;;;;9.82;7.15;;;14.30;62.40;;;;;;5033425;28;20066;-72
2021/12/06 07:13:51;;;;;;;10.55;7.78;;;15.00;63.00;;;;;;5033228;28;20092;-71
2021/12/06 07:16:18;;;;;;;10.55;7.25;;;14.20;62.40;;;;;;5032706;28;20136;-71
2021/12/06 07:18:46;;;;;;;14.60;9.07;;;14.30;62.50;;;;;;5034167;28;20064;-73
2021/12/06 07:21:13;;;;;;;15.95;8.27;;;13.90;62.00;;;;;;5032840;28;20080;-73
2021/12/06 07:23:40;;;;;;;11.68;7.93;;;14.30;62.30;;;;;;5032562;28;20508;-73
2021/12/06 07:26:07;;;;;;;10.98;7.43;;;14.40;62.00;;;;;;5033012;28;20140;-73
2021/12/06 07:28:34;;;;;;;11.35;7.63;;;15.20;62.50;;;;;;5032750;28;20136;-73
2021/12/06 07:31:05;;;;;;;10.40;7.60;;;14.60;61.70;;;;;;5033098;28;20085;-73
2021/12/06 07:33:32;;;;;;;13.85;8.15;;;14.20;61.70;;;;;;5034069;28;20077;-73
2021/12/06 07:35:59;;;;;;;11.88;8.30;;;14.50;61.60;;;;;;5032364;28;20573;-73
2021/12/06 07:38:27;;;;;;;11.35;8.32;;;;;;;;;;5030384;28;20141;-73
2021/12/06 07:40:53;;;;;;;11.80;8.15;;;14.60;61.70;;;;;;5032126;28;20513;-73
2021/12/06 07:43:21;;;;;;;11.63;8.05;;;;;;;;;;5032769;28;20136;-73
2021/12/06 07:45:48;;;;;;;11.85;8.13;;;14.60;62.00;;;;;;5032558;28;20144;-73
2021/12/06 07:48:16;;;;;;;10.20;7.20;;;14.80;61.80;;;;;;5036922;28;20084;-72
2021/12/06 07:50:43;;;;;;;11.27;7.68;;;14.60;61.70;;;;;;5041891;28;20095;-73
2021/12/06 07:53:09;;;;;;;11.15;7.80;;;14.80;61.90;;;;;;5039805;28;20141;-73
2021/12/06 07:55:37;;;;;;;11.40;7.50;;;14.80;62.00;;;;;;5039215;28;20136;-73
2021/12/06 07:58:04;;;;;;;10.30;7.72;;;;;;;;;;5032668;28;20060;-73
2021/12/06 08:00:31;;;;;;;9.73;7.28;;;;;;;;;;5032264;28;20130;-73
2021/12/06 08:02:58;;;;;;;10.52;7.53;;;14.70;61.60;;;;;;5036286;28;20136;-73
2021/12/06 08:05:33;;;;;;;11.13;7.40;;;14.70;61.50;;;;;;5036127;28;20147;-73
2021/12/06 08:08:01;;;;;;;10.52;7.50;;;14.80;61.60;;;;;;5050030;28;20104;-73
2021/12/06 08:10:28;;;;;;;9.80;7.45;;;14.30;61.40;;;;;;5023675;28;20045;-73
2021/12/06 08:12:55;;;;;;;10.25;7.28;;;14.50;61.20;;;;;;5054295;28;20089;-73
2021/12/06 08:15:22;;;;;;;9.15;7.00;;;14.80;61.30;;;;;;5031447;28;20140;-72
2021/12/06 08:17:48;;;;;;;10.90;7.72;;;14.80;61.20;;;;;;5031823;28;20152;-72
2021/12/06 08:20:15;;;;;;;9.23;6.90;;;14.80;61.70;;;;;;5031967;28;20116;-72
2021/12/06 08:22:43;;;;;;;11.65;7.63;;;14.90;61.70;;;;;;5031947;28;20132;-72
2021/12/06 08:25:11;;;;;;;8.55;6.30;;;;;;;;;;5031944;28;20144;-73
2021/12/06 08:27:38;;;;;;;9.70;7.18;;;14.80;61.40;;;;;;5031619;28;20144;-73
2021/12/06 08:30:06;;;;;;;11.50;7.43;;;14.80;61.10;;;;;;5031700;28;20124;-73
2021/12/06 08:32:32;;;;;;;11.25;7.88;;;14.90;61.50;;;;;;5037007;28;20132;-73
2021/12/06 08:34:59;;;;;;;11.40;6.97;;;14.80;61.20;;;;;;5050361;28;20096;-73
2021/12/06 08:37:26;;;;;;;9.10;6.35;;;14.90;61.20;;;;;;5035922;28;20037;-74
2021/12/06 08:39:54;;;;;;;8.65;6.60;;;14.60;61.10;;;;;;5031844;28;20504;-73
2021/12/06 08:42:21;;;;;;;9.48;6.70;;;15.40;61.70;;;;;;5028744;28;20192;-73
2021/12/06 08:44:48;;;;;;;9.32;6.78;;;;;;;;;;5031544;28;20148;-73
2021/12/06 08:47:16;;;;;;;8.88;6.20;;;15.40;61.50;;;;;;5031287;28;20140;-72
2021/12/06 08:49:43;;;;;;;9.00;6.50;;;14.50;61.20;;;;;;5031468;28;20056;-72
2021/12/06 08:52:10;;;;;;;9.48;6.80;;;15.00;61.50;;;;;;5031692;28;20160;-72
2021/12/06 08:54:37;;;;;;;9.35;5.97;;;15.00;61.50;;;;;;5030740;28;20481;-72
2021/12/06 08:57:06;;;;;;;9.48;7.03;;;15.00;61.50;;;;;;5031181;28;20140;-72
2021/12/06 08:59:33;;;;;;;10.85;7.18;;;;;;;;;;5032359;28;20597;-71
2021/12/06 09:02:00;;;;;;;9.68;7.10;;;15.20;61.50;;;;;;5031121;28;20131;-71
2021/12/06 09:04:28;;;;;;;8.68;6.25;;;14.00;60.70;;;;;;5031450;28;20581;-71
2021/12/06 09:06:55;;;;;;;9.10;6.60;;;15.00;61.30;;;;;;5030230;28;20053;-71
2021/12/06 09:09:22;;;;;;;8.75;6.28;;;14.70;61.00;;;;;;5030271;28;20541;-71
2021/12/06 09:11:49;;;;;;;8.95;6.70;;;14.90;57.20;;;;;;5032179;28;20132;-73
2021/12/06 09:14:17;;;;;;;9.15;6.68;;;15.00;61.40;;;;;;5031022;28;20132;-71
2021/12/06 09:16:44;;;;;;;8.82;5.97;;;15.00;61.40;;;;;;5031970;28;20427;-71
2021/12/06 09:19:11;;;;;;;11.60;6.20;;;15.10;61.60;;;;;;5030787;28;20051;-73
2021/12/06 09:21:39;;;;;;;8.25;6.10;;;15.10;61.60;;;;;;5031234;28;20141;-71
2021/12/06 09:24:06;;;;;;;10.15;6.90;;;14.50;61.50;;;;;;5031752;28;20128;-71
2021/12/06 09:26:33;;;;;;;11.90;6.60;;;14.80;61.80;;;;;;5030594;28;20137;-71
2021/12/06 09:28:59;;;;;;;8.80;6.05;;;15.00;62.20;;;;;;5030169;28;20059;-72
2021/12/06 09:31:28;;;;;;;10.48;6.53;;;14.30;62.00;;;;;;5030249;28;20077;-73
2021/12/06 09:33:54;;;;;;;11.48;6.90;;;15.30;62.40;;;;;;5030883;28;20148;-72
2021/12/06 09:36:21;;;;;;;10.82;6.38;;;14.40;62.40;;;;;;5030542;28;20188;-71
2021/12/06 09:38:48;;;;;;;10.88;5.88;;;15.00;60.50;;;;;;5030715;28;20077;-72
2021/12/06 09:41:19;;;;;;;10.30;6.28;;;15.10;62.60;;;;;;5030826;28;20054;-72
2021/12/06 09:43:46;;;;;;;8.48;6.10;;;14.70;62.40;;;;;;5030709;28;20099;-74
2021/12/06 09:46:13;;;;;;;12.88;6.55;;;15.30;62.60;;;;;;5030650;28;20137;-72
2021/12/06 09:48:42;;;;;;;10.20;6.55;;;15.70;62.90;;;;;;5030684;28;20050;-72
2021/12/06 09:51:11;;;;;;;10.55;6.50;;;15.20;62.80;;;;;;5030226;28;20506;-72
2021/12/06 09:53:40;;;;;;;8.77;5.72;;;15.30;57.90;;;;;;5030810;28;20140;-72
2021/12/06 09:56:10;;;;;;;9.30;5.90;;;15.10;62.80;;;;;;5030429;28;20566;-72
2021/12/06 09:58:37;;;;;;;9.55;6.18;;;14.30;62.40;;;;;;5030620;28;20136;-72
2021/12/06 10:01:06;;;;;;;10.60;5.88;;;15.10;62.60;;;;;;5030767;28;20055;-72
2021/12/06 10:03:33;;;;;;;12.13;6.32;;;15.20;62.90;;;;;;5030506;28;20081;-72
2021/12/06 10:06:04;;;;;;;12.35;6.97;;;15.10;62.70;;;;;;5030286;28;20057;-72
2021/12/06 10:08:31;;;;;;;8.55;5.93;;;15.30;62.70;;;;;;5030204;28;20053;-72
2021/12/06 10:10:58;;;;;;;8.82;6.32;;;;;;;;;;5030513;28;20231;-71
2021/12/06 10:13:25;;;;;;;8.68;5.93;;;15.10;62.50;;;;;;5030639;28;20442;-72
2021/12/06 10:15:52;;;;;;;9.52;6.05;;;15.30;62.50;;;;;;5030324;28;20077;-72
2021/12/06 10:18:20;;;;;;;10.23;6.35;;;14.30;62.20;;;;;;5031457;28;20451;-72
2021/12/06 10:20:47;;;;;;;8.27;6.25;;;15.20;62.40;;;;;;5033890;28;20080;-74
2021/12/06 10:23:16;;;;;;;8.65;5.90;;;14.70;62.80;;;;;;5034433;28;20455;-72
2021/12/06 10:25:44;;;;;;;8.82;5.88;;;15.20;62.40;;;;;;5033573;28;20148;-73
2021/12/06 10:28:12;;;;;;;8.50;5.93;;;;;;;;;;5034174;28;20136;-72
2021/12/06 10:30:39;;;;;;;9.20;5.90;;;15.40;63.00;;;;;;5034000;28;20049;-72
2021/12/06 10:33:08;;;;;;;10.10;6.28;;;15.20;62.40;;;;;;5033795;28;20072;-72
2021/12/06 10:35:35;;;;;;;11.25;6.30;;;14.60;62.10;;;;;;5033785;28;20092;-72
2021/12/06 10:38:02;;;;;;;9.73;6.65;;;16.00;62.70;;;;;;5033805;28;20461;-72
2021/12/06 10:40:31;;;;;;;10.68;6.38;;;16.00;62.70;;;;;;5034033;28;20132;-72
2021/12/06 10:42:58;;;;;;;8.90;6.13;;;15.30;62.40;;;;;;5033785;28;20137;-72
2021/12/06 10:45:27;;;;;;;7.63;6.03;;;15.30;62.60;;;;;;5033757;28;20136;-72
2021/12/06 10:48:08;;;;;;;8.95;6.20;;;15.50;63.00;;;;;;5039269;28;20131;-72
2021/12/06 10:50:35;;;;;;;9.75;6.40;;;15.30;62.40;;;;;;5041716;28;20087;-71
2021/12/06 10:53:03;;;;;;;9.23;5.55;;;15.40;62.40;;;;;;5043833;28;20132;-72
2021/12/06 10:55:32;;;;;;;8.18;5.63;;;14.40;61.70;;;;;;5043879;28;20057;-73
2021/12/06 10:58:01;;;;;;;9.07;6.55;;;15.30;62.20;;;;;;5036447;28;20060;-72
2021/12/06 11:00:40;;;;;;;10.60;6.30;;;14.40;61.60;;;;;;5042177;28;20140;-74
2021/12/06 11:03:22;;;;;;;7.90;5.30;;;15.30;62.40;;;;;;5038503;28;20450;-71
2021/12/06 11:05:50;;;;;;;9.00;6.00;;;16.30;63.20;;;;;;5040946;28;20136;-72
2021/12/06 11:08:18;;;;;;;7.93;5.65;;;15.40;62.10;;;;;;5039165;28;20057;-72
2021/12/06 11:10:52;;;;;;;8.13;5.70;;;15.40;62.00;;;;;;5041895;28;20045;-72
2021/12/06 11:13:22;;;;;;;7.60;5.67;;;15.40;62.80;;;;;;5040638;28;20131;-72
2021/12/06 11:16:08;;;;;;;8.65;6.15;;;15.70;62.40;;;;;;5037659;28;20051;-72
2021/12/06 11:18:41;;;;;;;7.93;5.43;;;14.90;62.60;;;;;;5032687;28;20128;-72
2021/12/06 11:21:16;;;;;;;7.00;5.30;;;15.20;62.10;;;;;;5029548;28;20080;-72
2021/12/06 11:24:06;;;;;;;8.90;6.22;;;15.20;62.10;;;;;;5031213;28;20498;-73
2021/12/06 11:26:34;;;;;;;11.75;5.95;;;15.30;62.40;;;;;;5013426;28;20132;-73
2021/12/06 11:29:10;;;;;;;8.85;5.50;;;14.50;61.80;;;;;;5013507;28;20129;-71
2021/12/06 11:31:36;;;;;;;;;;;15.30;56.40;;;;;;5014508;28;20125;-71
2021/12/06 11:34:04;;;;;;;7.95;5.38;;;16.00;63.00;;;;;;5025716;28;20011;-71
2021/12/06 11:36:31;;;;;;;9.60;5.80;;;;;;;;;;5033379;28;20379;-71
2021/12/06 11:38:59;;;;;;;9.52;5.68;;;14.60;61.90;;;;;;5032341;28;20525;-71
2021/12/06 11:41:26;;;;;;;10.82;6.20;;;15.40;62.20;;;;;;5032484;28;20133;-71
2021/12/06 11:43:54;;;;;;;8.45;5.95;;;15.30;62.30;;;;;;5033085;28;20571;-71
2021/12/06 11:46:31;;;;;;;8.43;5.57;;;14.70;62.10;;;;;;5033964;28;20132;-71
2021/12/06 11:48:58;;;;;;;8.52;5.57;;;14.40;61.80;;;;;;5032648;28;20128;-71
2021/12/06 11:51:25;;;;;;;8.85;5.30;;;15.40;62.50;;;;;;5033791;28;20613;-71
2021/12/06 11:53:54;;;;;;;7.50;5.80;;;15.30;62.10;;;;;;5031612;28;20128;-71
2021/12/06 11:56:22;;;;;;;9.30;5.63;;;14.50;61.70;;;;;;5032557;28;20136;-71
2021/12/06 11:58:51;;;;;;;11.32;5.30;;;15.70;62.30;;;;;;5034006;28;20132;-71
2021/12/06 12:01:21;;;;;;;6.85;5.18;;;16.10;62.90;;;;;;5031675;28;20051;-71
2021/12/06 12:03:49;;;;;;;7.25;5.43;;;14.70;62.40;;;;;;5033273;28;20124;-72
2021/12/06 12:06:27;;;;;;;16.08;6.65;;;15.50;62.40;;;;;;5033265;28;20128;-74
2021/12/06 12:09:12;;;;;;;15.80;7.20;;;15.50;62.60;;;;;;5028827;28;20455;-73
2021/12/06 12:12:13;;;;;;;12.73;5.90;;;14.70;62.20;;;;;;5032500;28;20077;-73
2021/12/06 12:14:41;;;;;;;9.27;5.50;;;15.80;63.00;;;;;;4975727;28;20074;-73
2021/12/06 12:17:11;;;;;;;10.35;5.95;;;15.40;62.70;;;;;;4975515;28;20164;-73
2021/12/06 12:19:40;;;;;;;8.30;5.68;;;;;;;;;;5001379;28;20080;-73
2021/12/06 12:22:07;;;;;;;9.75;5.38;;;15.40;62.60;;;;;;5032387;28;20108;-73
2021/12/06 12:24:35;;;;;;;12.23;5.63;;;15.80;62.50;;;;;;5032047;28;20128;-74
2021/12/06 12:27:09;;;;;;;9.30;5.38;;;15.30;62.60;;;;;;5031598;28;20136;-73
2021/12/06 12:29:36;;;;;;;10.85;6.03;;;15.20;62.70;;;;;;5032082;28;20128;-74
2021/12/06 12:32:05;;;;;;;10.30;5.78;;;15.20;56.10;;;;;;5031964;28;20080;-73
2021/12/06 12:34:36;;;;;;;10.30;5.57;;;15.20;62.10;;;;;;5031977;28;20514;-74
2021/12/06 12:37:03;;;;;;;9.45;5.80;;;14.50;61.90;;;;;;5031481;28;20103;-73
2021/12/06 12:39:30;;;;;;;11.38;5.80;;;15.30;62.60;;;;;;5032045;28;20136;-73
2021/12/06 12:41:58;;;;;;;12.13;5.85;;;15.30;62.80;;;;;;5030200;28;20121;-73
2021/12/06 12:44:25;;;;;;;10.60;5.70;;;14.80;62.00;;;;;;5048433;28;20092;-73
2021/12/06 12:46:53;;;;;;;7.85;5.10;;;14.90;62.10;;;;;;5047836;28;20152;-73
2021/12/06 12:49:22;;;;;;;8.65;5.40;;;15.20;62.40;;;;;;5030713;28;20077;-73
2021/12/06 12:51:52;;;;;;;8.05;5.72;;;15.10;59.20;;;;;;5031232;28;20474;-73
2021/12/06 12:54:22;;;;;;;8.77;5.72;;;15.10;62.60;;;;;;5028803;28;20708;-73
2021/12/06 12:56:50;;;;;;;9.35;5.50;;;14.80;62.30;;;;;;5030734;28;20060;-73
2021/12/06 12:59:39;;;;;;;8.05;5.38;;;15.10;62.30;;;;;;5028461;28;20054;-73
2021/12/06 13:02:25;;;;;;;8.25;5.68;;;14.80;62.50;;;;;;5029212;28;20132;-73
2021/12/06 13:05:21;;;;;;;8.73;5.60;;;14.40;62.30;;;;;;5030437;28;20053;-73